Time;durP1;ratioP1;P1;durP2;ratioP2;P2;SDS_P1;SDS_P2;PMS_P1;PMS_P2;Temp;Humidity;BMP_temperature;BMP_pressure;BME280_temperature;BME280_humidity;BME280_pressure;Samples;Min_cycle;Max_cycle;Signal;HPM_P1;HPM_P2
2024/03/20 00:01:21;;;;;;;4.27;3.50;;;17.60;54.90;;;;;;5028290;28;20181;-61
2024/03/20 00:03:47;;;;;;;4.60;4.20;;;17.60;54.90;;;;;;5019533;28;20694;-61
2024/03/20 00:06:12;;;;;;;4.90;4.10;;;17.50;54.90;;;;;;5018226;28;20223;-63
2024/03/20 00:08:38;;;;;;;5.33;4.40;;;17.60;54.90;;;;;;5018924;28;20283;-62
2024/03/20 00:11:04;;;;;;;5.87;4.67;;;17.60;54.60;;;;;;5020305;28;20189;-64
2024/03/20 00:13:29;;;;;;;4.50;4.10;;;17.50;55.00;;;;;;5024404;28;20189;-59
2024/03/20 00:15:55;;;;;;;6.67;5.43;;;17.40;54.90;;;;;;5027233;28;20713;-62
2024/03/20 00:18:20;;;;;;;7.97;5.60;;;17.30;54.80;;;;;;5023042;28;20323;-62
2024/03/20 00:20:46;;;;;;;4.40;3.80;;;17.20;55.00;;;;;;5023730;28;20197;-60
2024/03/20 00:23:11;;;;;;;8.40;4.30;;;17.20;55.10;;;;;;5024039;28;20181;-58
2024/03/20 00:25:37;;;;;;;5.97;4.70;;;17.10;55.40;;;;;;5020845;28;20727;-61
2024/03/20 00:28:03;;;;;;;5.27;4.50;;;17.20;55.60;;;;;;5024720;28;20803;-66
2024/03/20 00:30:28;;;;;;;5.23;4.73;;;17.10;55.50;;;;;;5025223;28;20181;-64
2024/03/20 00:32:54;;;;;;;5.13;4.30;;;16.80;55.80;;;;;;5024441;28;20190;-63
2024/03/20 00:35:19;;;;;;;5.40;4.30;;;16.80;56.40;;;;;;5022813;28;20237;-57
2024/03/20 00:37:45;;;;;;;6.27;4.93;;;16.80;56.20;;;;;;5021700;28;20233;-63
2024/03/20 00:40:11;;;;;;;6.77;4.53;;;16.90;55.80;;;;;;5024484;28;20189;-63
2024/03/20 00:42:36;;;;;;;9.03;4.87;;;16.60;55.30;;;;;;5027047;28;20700;-60
2024/03/20 00:45:03;;;;;;;5.70;5.07;;;16.10;57.10;;;;;;5023388;28;20217;-68
2024/03/20 00:47:29;;;;;;;6.30;4.47;;;16.10;57.70;;;;;;5028556;28;20574;-62
2024/03/20 00:49:54;;;;;;;8.57;5.13;;;16.10;57.60;;;;;;5020403;28;20502;-60
2024/03/20 00:52:20;;;;;;;7.73;4.60;;;16.00;57.80;;;;;;5027786;28;20613;-62
2024/03/20 00:54:46;;;;;;;5.17;4.53;;;16.10;58.00;;;;;;5024133;28;20679;-61
2024/03/20 00:57:12;;;;;;;10.57;5.33;;;16.20;57.60;;;;;;5028283;28;20216;-58
2024/03/20 00:59:38;;;;;;;8.33;4.53;;;16.40;57.10;;;;;;5024748;28;20185;-59
2024/03/20 01:02:06;;;;;;;5.50;5.00;;;16.50;56.90;;;;;;5027037;28;20423;-60
2024/03/20 01:04:32;;;;;;;5.40;4.40;;;16.50;56.40;;;;;;5029727;28;20169;-59
2024/03/20 01:06:58;;;;;;;7.30;5.00;;;16.60;56.40;;;;;;5025727;28;20959;-58
2024/03/20 01:09:24;;;;;;;5.43;4.90;;;16.60;55.90;;;;;;5027641;28;20424;-61
2024/03/20 01:11:49;;;;;;;6.40;5.00;;;16.60;56.00;;;;;;5025396;28;20710;-61
2024/03/20 01:14:15;;;;;;;4.90;4.43;;;16.70;55.70;;;;;;5026096;28;20193;-64
2024/03/20 01:16:42;;;;;;;7.23;4.60;;;16.70;55.70;;;;;;5030336;28;20213;-65
2024/03/20 01:19:08;;;;;;;5.27;4.40;;;16.70;55.70;;;;;;5026109;28;20251;-61
2024/03/20 01:21:33;;;;;;;9.40;5.40;;;16.80;55.90;;;;;;5031772;28;20840;-61
2024/03/20 01:23:59;;;;;;;5.67;4.80;;;16.80;55.50;;;;;;5021271;28;20433;-63
2024/03/20 01:26:25;;;;;;;6.57;4.03;;;16.80;55.10;;;;;;5019320;28;20245;-62
2024/03/20 01:28:50;;;;;;;6.60;4.30;;;16.70;55.70;;;;;;5023051;28;20186;-60
2024/03/20 01:31:16;;;;;;;4.50;3.97;;;16.70;56.10;;;;;;5024145;28;20203;-62
2024/03/20 01:33:41;;;;;;;5.30;4.80;;;16.70;56.00;;;;;;5024157;28;20189;-64
2024/03/20 01:36:07;;;;;;;5.20;4.43;;;16.70;55.80;;;;;;5026459;28;20577;-63
2024/03/20 01:38:32;;;;;;;7.00;4.90;;;16.70;55.60;;;;;;5020772;28;20652;-63
2024/03/20 01:40:58;;;;;;;6.67;4.80;;;16.70;55.70;;;;;;5024035;28;20197;-60
2024/03/20 01:43:23;;;;;;;7.07;4.37;;;16.70;55.50;;;;;;5022984;28;20181;-63
2024/03/20 01:45:49;;;;;;;5.00;4.10;;;16.70;55.10;;;;;;5020572;28;20213;-59
2024/03/20 01:48:16;;;;;;;6.23;4.27;;;16.70;55.80;;;;;;5020784;28;20414;-65
2024/03/20 01:50:42;;;;;;;5.63;4.77;;;16.70;55.40;;;;;;5024119;28;20980;-64
2024/03/20 01:53:09;;;;;;;5.00;4.57;;;16.70;55.10;;;;;;5022683;28;20447;-62
2024/03/20 01:55:38;;;;;;;5.00;4.60;;;16.60;55.00;;;;;;5023447;28;20448;-66
2024/03/20 01:58:04;;;;;;;5.27;4.57;;;16.60;55.00;;;;;;5022190;28;20467;-65
2024/03/20 02:00:30;;;;;;;5.30;4.30;;;16.60;55.30;;;;;;5026379;28;20494;-66
2024/03/20 02:03:00;;;;;;;5.00;4.50;;;16.60;55.50;;;;;;5022698;28;20327;-64
2024/03/20 02:05:27;;;;;;;6.67;5.50;;;16.60;55.60;;;;;;5020265;28;20220;-67
2024/03/20 02:07:53;;;;;;;8.27;4.80;;;16.60;55.60;;;;;;5017234;28;20473;-61
2024/03/20 02:10:19;;;;;;;5.37;4.40;;;16.60;55.40;;;;;;5019776;28;20979;-62
2024/03/20 02:12:45;;;;;;;4.70;4.30;;;16.50;55.00;;;;;;5019830;28;21511;-61
2024/03/20 02:15:12;;;;;;;5.10;4.70;;;16.30;55.30;;;;;;5021672;28;20451;-62
2024/03/20 02:17:41;;;;;;;5.70;5.17;;;16.30;55.30;;;;;;5020000;28;20212;-66
2024/03/20 02:20:08;;;;;;;4.77;4.27;;;16.30;55.80;;;;;;5019902;28;20445;-63
2024/03/20 02:22:42;;;;;;;5.03;4.63;;;16.40;55.40;;;;;;5021671;28;20463;-67
2024/03/20 02:25:12;;;;;;;5.57;4.23;;;16.40;55.20;;;;;;5020173;28;20464;-58
2024/03/20 02:27:38;;;;;;;4.90;4.50;;;16.40;55.20;;;;;;5021726;28;20463;-60
2024/03/20 02:30:14;;;;;;;5.70;4.97;;;16.30;55.30;;;;;;5022438;28;22038;-68
2024/03/20 02:32:40;;;;;;;5.20;4.70;;;16.30;55.60;;;;;;5021222;28;20444;-65
2024/03/20 02:35:07;;;;;;;5.20;4.80;;;16.30;55.50;;;;;;5020741;28;20436;-64
2024/03/20 02:37:32;;;;;;;6.00;4.97;;;16.20;55.60;;;;;;5020055;28;20558;-64
2024/03/20 02:39:58;;;;;;;4.07;3.77;;;16.20;55.60;;;;;;5018849;28;20584;-63
2024/03/20 02:42:24;;;;;;;5.50;4.50;;;16.20;55.50;;;;;;5022081;28;20209;-63
2024/03/20 02:44:50;;;;;;;4.10;3.80;;;16.10;55.70;;;;;;5020803;28;20504;-62
2024/03/20 02:47:17;;;;;;;5.17;4.47;;;16.00;56.20;;;;;;5028045;28;20598;-65
2024/03/20 02:49:42;;;;;;;6.10;4.50;;;16.00;56.20;;;;;;5024654;28;20423;-67
2024/03/20 02:52:08;;;;;;;4.93;4.30;;;15.90;56.60;;;;;;5026767;28;20416;-61
2024/03/20 02:54:35;;;;;;;5.80;5.20;;;15.90;56.40;;;;;;5025279;28;20197;-60
2024/03/20 02:57:00;;;;;;;4.20;3.87;;;15.80;56.50;;;;;;5025642;28;20284;-62
2024/03/20 02:59:26;;;;;;;4.83;4.30;;;15.80;56.40;;;;;;5021450;28;20491;-62
2024/03/20 03:01:52;;;;;;;7.73;5.27;;;15.70;56.40;;;;;;5025120;28;20197;-61
2024/03/20 03:04:17;;;;;;;8.33;5.20;;;15.60;56.50;;;;;;5024729;28;20221;-60
2024/03/20 03:06:43;;;;;;;7.50;4.47;;;15.50;57.10;;;;;;5023697;28;20258;-61
2024/03/20 03:09:09;;;;;;;4.37;3.97;;;15.60;57.00;;;;;;4984305;28;1155328;-64
2024/03/20 03:11:35;;;;;;;5.50;4.53;;;15.70;56.70;;;;;;5028006;28;20248;-62
2024/03/20 03:14:01;;;;;;;6.43;5.30;;;15.70;56.70;;;;;;5025623;28;20281;-63
2024/03/20 03:16:26;;;;;;;5.27;4.67;;;15.70;56.70;;;;;;5013087;28;20456;-65
2024/03/20 03:18:52;;;;;;;6.63;4.07;;;15.60;56.30;;;;;;5025585;28;20432;-60
2024/03/20 03:21:18;;;;;;;4.30;3.90;;;15.60;56.50;;;;;;5029347;28;20186;-60
2024/03/20 03:23:43;;;;;;;5.07;4.57;;;15.50;56.20;;;;;;5026181;28;20200;-59
2024/03/20 03:26:09;;;;;;;6.30;4.97;;;15.10;56.70;;;;;;5021176;28;20216;-63
2024/03/20 03:28:34;;;;;;;6.13;4.37;;;14.90;57.60;;;;;;5019985;28;20235;-61
2024/03/20 03:31:00;;;;;;;5.17;4.67;;;14.60;58.20;;;;;;5024112;28;20196;-63
2024/03/20 03:33:26;;;;;;;6.13;5.63;;;14.60;59.20;;;;;;5017062;28;20185;-59
2024/03/20 03:36:02;;;;;;;10.00;4.47;;;14.70;59.00;;;;;;5020800;28;20526;-59
2024/03/20 03:38:29;;;;;;;5.97;4.70;;;14.80;58.80;;;;;;5018928;28;20432;-58
2024/03/20 03:41:04;;;;;;;7.70;4.30;;;15.00;58.40;;;;;;5021287;28;20530;-61
2024/03/20 03:43:31;;;;;;;6.60;4.97;;;15.10;57.70;;;;;;5020648;28;20442;-60
2024/03/20 03:45:57;;;;;;;4.93;4.43;;;14.90;57.90;;;;;;5023797;28;20498;-68
2024/03/20 03:48:25;;;;;;;4.63;4.23;;;14.90;57.40;;;;;;5023139;28;20447;-59
2024/03/20 03:50:52;;;;;;;4.90;4.40;;;14.90;57.50;;;;;;5022253;28;20800;-66
2024/03/20 03:53:18;;;;;;;4.83;4.43;;;15.00;57.60;;;;;;5026575;28;21023;-63
2024/03/20 03:55:44;;;;;;;4.60;4.13;;;15.00;57.40;;;;;;5022104;28;20471;-63
2024/03/20 03:58:10;;;;;;;6.00;5.40;;;15.10;57.90;;;;;;5017016;28;20455;-62
2024/03/20 04:00:36;;;;;;;4.47;4.07;;;15.20;57.60;;;;;;5026565;28;20501;-62
2024/03/20 04:03:05;;;;;;;7.00;5.20;;;15.10;56.70;;;;;;5025602;28;20193;-66
2024/03/20 04:05:31;;;;;;;5.40;4.13;;;15.20;56.80;;;;;;5030621;28;20221;-59
2024/03/20 04:07:56;;;;;;;4.93;4.40;;;15.40;56.30;;;;;;5031357;28;20481;-59
2024/03/20 04:10:22;;;;;;;6.00;5.27;;;15.50;56.00;;;;;;5030269;28;20811;-58
2024/03/20 04:12:48;;;;;;;5.80;5.23;;;15.50;55.30;;;;;;5029521;28;20181;-61
2024/03/20 04:15:14;;;;;;;8.53;4.50;;;15.50;54.80;;;;;;5028339;28;20274;-64
2024/03/20 04:17:40;;;;;;;6.73;4.90;;;15.50;55.40;;;;;;5028742;28;20213;-64
2024/03/20 04:20:07;;;;;;;5.40;4.87;;;15.50;56.10;;;;;;5024025;28;20955;-67
2024/03/20 04:22:33;;;;;;;6.57;4.43;;;15.50;55.60;;;;;;5027777;28;20448;-60
2024/03/20 04:24:58;;;;;;;6.40;4.70;;;15.50;56.00;;;;;;5029190;28;20841;-61
2024/03/20 04:27:25;;;;;;;4.60;4.20;;;15.50;55.60;;;;;;5027956;28;20241;-63
2024/03/20 04:29:51;;;;;;;7.70;4.30;;;15.50;56.30;;;;;;5028947;28;20189;-64
2024/03/20 04:32:17;;;;;;;6.00;5.17;;;15.30;56.80;;;;;;5029686;28;21522;-62
2024/03/20 04:34:43;;;;;;;4.77;4.37;;;15.30;56.80;;;;;;5027764;28;20448;-58
2024/03/20 04:37:09;;;;;;;5.80;4.70;;;15.20;56.60;;;;;;5022250;28;20460;-65
2024/03/20 04:39:35;;;;;;;5.40;4.53;;;15.30;56.70;;;;;;5024531;28;20194;-64
2024/03/20 04:42:02;;;;;;;6.73;4.70;;;15.50;56.40;;;;;;5027254;28;20527;-60
2024/03/20 04:44:27;;;;;;;4.40;4.00;;;15.50;55.60;;;;;;5023115;28;20425;-58
2024/03/20 04:46:53;;;;;;;4.40;4.00;;;15.50;55.80;;;;;;5023194;28;20545;-60
2024/03/20 04:49:18;;;;;;;6.00;5.50;;;15.60;55.40;;;;;;5023497;28;20272;-64
2024/03/20 04:51:44;;;;;;;7.67;6.23;;;15.60;55.40;;;;;;5027706;28;20255;-62
2024/03/20 04:54:10;;;;;;;6.97;6.27;;;15.70;55.00;;;;;;5025641;28;20300;-65
2024/03/20 04:56:35;;;;;;;10.00;7.00;;;15.70;54.90;;;;;;5028341;28;20604;-64
2024/03/20 04:59:01;;;;;;;5.80;5.00;;;15.60;55.20;;;;;;5030833;28;20185;-60
2024/03/20 05:01:26;;;;;;;9.17;5.30;;;15.40;55.70;;;;;;5029565;28;20181;-64
2024/03/20 05:03:52;;;;;;;6.20;5.60;;;15.40;55.60;;;;;;5025523;28;20197;-64
2024/03/20 05:06:17;;;;;;;4.80;4.40;;;15.40;55.50;;;;;;5024192;28;20720;-63
2024/03/20 05:08:44;;;;;;;4.90;4.40;;;15.40;55.80;;;;;;5028353;28;20189;-61
2024/03/20 05:11:10;;;;;;;5.23;4.73;;;15.40;56.10;;;;;;5024142;28;20186;-62
2024/03/20 05:13:35;;;;;;;4.40;4.10;;;15.50;55.90;;;;;;5026799;28;20446;-65
2024/03/20 05:16:01;;;;;;;5.67;4.63;;;15.50;55.30;;;;;;5032325;28;20189;-62
2024/03/20 05:18:26;;;;;;;6.97;4.20;;;15.60;55.50;;;;;;5029529;28;20173;-63
2024/03/20 05:20:52;;;;;;;4.23;3.83;;;15.50;55.80;;;;;;5029253;28;20772;-59
2024/03/20 05:23:18;;;;;;;5.13;4.53;;;15.50;55.50;;;;;;5029726;28;20702;-63
2024/03/20 05:25:53;;;;;;;6.10;4.43;;;15.40;55.80;;;;;;5027672;28;20605;-63
2024/03/20 05:28:18;;;;;;;4.53;3.53;;;15.10;55.90;;;;;;5022660;28;20204;-64
2024/03/20 05:30:44;;;;;;;6.30;4.67;;;14.90;56.60;;;;;;5022186;28;20440;-59
2024/03/20 05:33:09;;;;;;;5.03;4.20;;;14.90;56.80;;;;;;5022276;28;20189;-66
2024/03/20 05:35:35;;;;;;;4.53;3.80;;;14.70;56.80;;;;;;5023059;28;20181;-66
2024/03/20 05:38:00;;;;;;;5.60;4.60;;;14.50;57.30;;;;;;5023186;28;20209;-67
2024/03/20 05:40:26;;;;;;;5.93;4.40;;;14.40;57.60;;;;;;5023605;28;20193;-61
2024/03/20 05:42:51;;;;;;;5.97;4.97;;;14.40;57.70;;;;;;5021564;28;20193;-62
2024/03/20 05:45:17;;;;;;;5.37;4.80;;;14.60;57.00;;;;;;5022688;28;21328;-64
2024/03/20 05:47:43;;;;;;;5.53;4.30;;;14.70;56.90;;;;;;5021503;28;20685;-64
2024/03/20 05:50:08;;;;;;;5.10;4.50;;;14.80;56.70;;;;;;5023797;28;20185;-60
2024/03/20 05:52:34;;;;;;;4.27;3.80;;;14.80;56.20;;;;;;5023442;28;20189;-61
2024/03/20 05:54:59;;;;;;;5.13;4.43;;;14.80;56.00;;;;;;5020722;28;20201;-66
2024/03/20 05:57:25;;;;;;;5.57;5.03;;;14.80;56.40;;;;;;5022784;28;20201;-63
2024/03/20 05:59:51;;;;;;;4.80;3.97;;;14.80;56.70;;;;;;5022997;28;20192;-58
2024/03/20 06:02:17;;;;;;;7.03;4.20;;;14.80;56.80;;;;;;5021497;28;20192;-64
2024/03/20 06:04:42;;;;;;;4.70;4.27;;;14.80;56.80;;;;;;5021468;28;20436;-64
2024/03/20 06:07:08;;;;;;;8.10;4.77;;;14.80;57.00;;;;;;5021251;28;20251;-63
2024/03/20 06:09:33;;;;;;;6.40;5.37;;;14.90;56.80;;;;;;5021590;28;20193;-63
2024/03/20 06:11:59;;;;;;;6.17;4.70;;;15.00;56.60;;;;;;5021079;28;20697;-65
2024/03/20 06:14:25;;;;;;;5.40;4.90;;;15.10;56.40;;;;;;5022630;28;20216;-58
2024/03/20 06:16:51;;;;;;;5.27;4.77;;;15.10;56.10;;;;;;5022136;28;20576;-60
2024/03/20 06:19:16;;;;;;;5.33;4.73;;;15.10;56.10;;;;;;5022402;28;20771;-63
2024/03/20 06:21:42;;;;;;;6.37;5.70;;;15.10;56.10;;;;;;5021752;28;20645;-63
2024/03/20 06:24:08;;;;;;;4.90;4.17;;;15.10;56.10;;;;;;5022004;28;20664;-61
2024/03/20 06:26:34;;;;;;;7.57;5.40;;;15.10;56.30;;;;;;5022230;28;20222;-61
2024/03/20 06:28:59;;;;;;;5.50;4.40;;;15.10;56.30;;;;;;5020054;28;20432;-65
2024/03/20 06:31:25;;;;;;;6.87;5.67;;;15.20;56.30;;;;;;5021214;28;20712;-59
2024/03/20 06:33:51;;;;;;;6.47;5.30;;;15.20;56.90;;;;;;5020985;28;20251;-60
2024/03/20 06:36:17;;;;;;;7.70;5.10;;;15.20;56.50;;;;;;5020942;28;20472;-60
2024/03/20 06:38:43;;;;;;;7.80;5.50;;;15.20;56.50;;;;;;5022095;28;20427;-65
2024/03/20 06:41:09;;;;;;;7.90;5.13;;;15.30;56.70;;;;;;5024125;28;20189;-60
2024/03/20 06:43:34;;;;;;;9.47;5.63;;;15.30;56.50;;;;;;5021625;28;20191;-62
2024/03/20 06:46:02;;;;;;;6.70;5.57;;;15.50;56.80;;;;;;5027445;28;20484;-63
2024/03/20 06:48:28;;;;;;;6.40;5.77;;;15.70;56.50;;;;;;5028860;28;20189;-64
2024/03/20 06:50:58;;;;;;;4.93;4.50;;;15.80;56.40;;;;;;5025287;28;20436;-64
2024/03/20 06:53:24;;;;;;;6.83;5.50;;;15.80;56.00;;;;;;5026699;28;20806;-63
2024/03/20 06:55:53;;;;;;;6.20;5.00;;;15.60;56.70;;;;;;5026925;28;20440;-65
2024/03/20 06:58:20;;;;;;;5.20;4.70;;;15.70;56.80;;;;;;5026645;28;21360;-61
2024/03/20 07:00:46;;;;;;;8.50;5.43;;;15.70;56.50;;;;;;5022191;28;20450;-60
2024/03/20 07:03:13;;;;;;;5.87;4.17;;;15.50;56.70;;;;;;5027026;28;20440;-65
2024/03/20 07:05:39;;;;;;;6.80;5.03;;;15.50;57.30;;;;;;5026449;28;20514;-63
2024/03/20 07:08:04;;;;;;;6.10;4.93;;;15.60;57.00;;;;;;5028245;28;20499;-64
2024/03/20 07:10:30;;;;;;;6.20;5.60;;;15.90;56.70;;;;;;5028388;28;20193;-63
2024/03/20 07:12:56;;;;;;;5.57;5.07;;;16.20;56.50;;;;;;5028920;28;20197;-64
2024/03/20 07:15:21;;;;;;;5.93;5.23;;;16.10;56.10;;;;;;5023809;28;20193;-69
2024/03/20 07:17:47;;;;;;;6.37;4.90;;;16.10;56.30;;;;;;5027020;28;20216;-63
2024/03/20 07:20:13;;;;;;;5.90;5.40;;;16.30;55.80;;;;;;5022583;28;20537;-61
2024/03/20 07:22:39;;;;;;;6.30;5.07;;;16.20;55.70;;;;;;5024804;28;20189;-62
2024/03/20 07:25:08;;;;;;;5.77;4.90;;;16.20;55.80;;;;;;5027451;28;21006;-63
2024/03/20 07:27:34;;;;;;;5.53;4.93;;;16.50;55.70;;;;;;5026899;28;20547;-64
2024/03/20 07:30:03;;;;;;;5.57;5.03;;;16.60;55.40;;;;;;5026317;28;20507;-64
2024/03/20 07:32:29;;;;;;;5.63;5.10;;;16.90;55.10;;;;;;5027963;28;20184;-63
2024/03/20 07:34:55;;;;;;;8.77;5.10;;;17.10;54.80;;;;;;5022658;28;20436;-62
2024/03/20 07:37:20;;;;;;;6.37;5.70;;;17.30;54.60;;;;;;5026195;28;20193;-63
2024/03/20 07:39:46;;;;;;;7.63;5.40;;;17.50;54.50;;;;;;5024221;28;20190;-60
2024/03/20 07:42:12;;;;;;;6.50;5.20;;;17.70;54.10;;;;;;5024457;28;20193;-61
2024/03/20 07:44:37;;;;;;;6.30;5.70;;;17.90;53.70;;;;;;5023160;28;20650;-62
2024/03/20 07:47:03;;;;;;;5.33;4.90;;;17.60;53.30;;;;;;5024960;28;20304;-60
2024/03/20 07:49:29;;;;;;;6.40;5.80;;;17.50;53.50;;;;;;5021483;28;20687;-63
2024/03/20 07:51:55;;;;;;;7.40;6.70;;;17.30;53.70;;;;;;5023954;28;20562;-64
2024/03/20 07:54:24;;;;;;;6.00;5.43;;;17.10;54.30;;;;;;5021066;28;20382;-63
2024/03/20 07:56:50;;;;;;;7.33;5.17;;;17.40;54.70;;;;;;5025166;28;20610;-62
2024/03/20 07:59:16;;;;;;;6.60;6.00;;;17.60;53.80;;;;;;5024276;28;20436;-61
2024/03/20 08:01:42;;;;;;;5.40;4.97;;;17.50;53.90;;;;;;5025257;28;20538;-62
2024/03/20 08:04:09;;;;;;;6.27;5.10;;;17.70;53.80;;;;;;5023559;28;20494;-62
2024/03/20 08:06:34;;;;;;;5.57;5.17;;;17.70;53.30;;;;;;5025184;28;20308;-61
2024/03/20 08:09:00;;;;;;;6.20;5.60;;;17.70;53.90;;;;;;5017998;28;20598;-65
2024/03/20 08:11:25;;;;;;;6.53;5.30;;;17.70;53.90;;;;;;5023936;28;20181;-61
2024/03/20 08:13:51;;;;;;;5.70;5.10;;;17.90;54.00;;;;;;5027062;28;20184;-62
2024/03/20 08:16:17;;;;;;;5.87;5.00;;;18.10;54.10;;;;;;5025017;28;20209;-65
2024/03/20 08:18:43;;;;;;;5.47;4.43;;;18.40;52.40;;;;;;5026811;28;20189;-65
2024/03/20 08:21:09;;;;;;;6.27;5.20;;;18.60;52.10;;;;;;5025768;28;20806;-64
2024/03/20 08:23:35;;;;;;;5.50;5.00;;;18.80;52.40;;;;;;5026171;28;20209;-68
2024/03/20 08:26:01;;;;;;;4.83;4.43;;;19.00;51.40;;;;;;5022256;28;20221;-66
2024/03/20 08:28:27;;;;;;;5.30;4.80;;;19.20;51.20;;;;;;5027273;28;20427;-66
2024/03/20 08:30:52;;;;;;;5.43;4.90;;;19.20;50.60;;;;;;5025747;28;20431;-64
2024/03/20 08:33:19;;;;;;;3.83;3.53;;;19.30;50.40;;;;;;5017021;28;20192;-62
2024/03/20 08:35:57;;;;;;;4.43;4.03;;;19.40;50.60;;;;;;5026120;28;20225;-63
2024/03/20 08:38:24;;;;;;;5.40;4.87;;;19.60;49.80;;;;;;5019507;28;20443;-67
2024/03/20 08:40:49;;;;;;;5.87;4.50;;;19.70;50.00;;;;;;5025263;28;20440;-63
2024/03/20 08:43:15;;;;;;;5.10;4.70;;;19.50;48.90;;;;;;5022737;28;20940;-64
2024/03/20 08:45:41;;;;;;;5.13;3.80;;;19.50;50.10;;;;;;5024862;28;20222;-65
2024/03/20 08:48:07;;;;;;;5.13;3.67;;;19.60;49.70;;;;;;5027269;28;20213;-63
2024/03/20 08:50:34;;;;;;;4.70;4.40;;;19.80;48.80;;;;;;5023694;28;20448;-66
2024/03/20 08:53:00;;;;;;;4.80;4.40;;;19.90;48.70;;;;;;5028264;28;20185;-69
2024/03/20 08:55:25;;;;;;;5.20;4.23;;;20.10;48.90;;;;;;5026448;28;20443;-65
2024/03/20 08:57:51;;;;;;;3.93;3.63;;;20.30;48.20;;;;;;5033074;28;20268;-64
2024/03/20 09:00:19;;;;;;;5.53;4.23;;;20.30;47.00;;;;;;5022917;28;20177;-64
2024/03/20 09:02:45;;;;;;;6.17;3.93;;;20.40;47.10;;;;;;5021904;28;20197;-63
2024/03/20 09:05:11;;;;;;;6.90;3.90;;;20.50;46.20;;;;;;5022992;28;20483;-68
2024/03/20 09:07:37;;;;;;;4.53;4.13;;;20.60;45.90;;;;;;5029578;28;20225;-64
2024/03/20 09:10:02;;;;;;;6.10;4.20;;;20.90;46.40;;;;;;5040531;23;20504;-63
2024/03/20 09:12:28;;;;;;;4.97;4.00;;;20.90;47.00;;;;;;5006889;28;20297;-62
2024/03/20 09:14:53;;;;;;;4.20;3.67;;;20.90;46.70;;;;;;5005911;28;20201;-63
2024/03/20 09:17:20;;;;;;;5.00;3.60;;;21.10;46.40;;;;;;4995711;28;20766;-62
2024/03/20 09:19:46;;;;;;;4.40;4.00;;;21.20;46.60;;;;;;4990691;28;20329;-61
2024/03/20 09:22:12;;;;;;;5.70;4.33;;;21.30;46.50;;;;;;4990209;28;20540;-60
2024/03/20 09:24:37;;;;;;;4.50;4.07;;;21.50;45.50;;;;;;4988198;28;20433;-62
2024/03/20 09:27:04;;;;;;;3.43;3.13;;;21.50;45.10;;;;;;4989361;28;20230;-61
2024/03/20 09:29:29;;;;;;;4.13;3.73;;;21.50;45.30;;;;;;4987476;28;20690;-62
2024/03/20 09:31:55;;;;;;;4.77;3.50;;;21.70;45.50;;;;;;4988185;28;20528;-60
2024/03/20 09:34:21;;;;;;;4.17;3.80;;;21.70;44.90;;;;;;4983348;28;20850;-60
2024/03/20 09:36:49;;;;;;;7.73;3.67;;;21.80;44.80;;;;;;4987261;28;20198;-63
2024/03/20 09:39:15;;;;;;;3.40;3.10;;;21.80;44.90;;;;;;4988425;28;20190;-62
2024/03/20 09:41:41;;;;;;;3.80;3.50;;;21.60;45.40;;;;;;4985841;28;20476;-61
2024/03/20 09:44:10;;;;;;;2.80;2.60;;;21.70;45.20;;;;;;4987107;28;20186;-62
2024/03/20 09:46:36;;;;;;;3.37;3.07;;;22.00;45.70;;;;;;4985818;28;20497;-63
2024/03/20 09:49:02;;;;;;;3.33;2.80;;;22.20;44.70;;;;;;4987822;28;20517;-62
2024/03/20 09:51:29;;;;;;;3.40;3.17;;;22.40;44.10;;;;;;4987666;28;20191;-63
2024/03/20 09:53:54;;;;;;;3.70;3.30;;;22.30;43.80;;;;;;4987995;28;20470;-64
2024/03/20 09:56:21;;;;;;;3.17;2.87;;;22.40;43.60;;;;;;4989512;28;20505;-64
2024/03/20 09:58:48;;;;;;;4.33;3.00;;;22.60;44.30;;;;;;4985870;28;20187;-62
2024/03/20 10:01:20;;;;;;;3.17;2.87;;;22.70;44.40;;;;;;4981999;28;20520;-64
2024/03/20 10:03:50;;;;;;;3.93;2.77;;;22.90;44.40;;;;;;4985614;28;20448;-60
2024/03/20 10:06:15;;;;;;;4.07;2.70;;;23.00;43.40;;;;;;4987664;28;20629;-59
2024/03/20 10:08:41;;;;;;;2.63;2.43;;;23.30;43.20;;;;;;4989680;28;20573;-58
2024/03/20 10:11:07;;;;;;;3.30;3.00;;;23.40;42.70;;;;;;4988693;28;20205;-61
2024/03/20 10:13:36;;;;;;;2.70;2.50;;;23.50;42.60;;;;;;4988381;28;20197;-59
2024/03/20 10:16:09;;;;;;;2.73;2.50;;;23.70;42.70;;;;;;4984661;28;21109;-55
2024/03/20 10:18:35;;;;;;;2.87;2.67;;;24.00;41.50;;;;;;4987678;28;20457;-62
2024/03/20 10:21:02;;;;;;;2.87;2.67;;;23.90;40.90;;;;;;4983347;28;20460;-62
2024/03/20 10:23:28;;;;;;;2.63;2.43;;;24.10;41.80;;;;;;4991765;28;22364;-58
2024/03/20 10:25:57;;;;;;;2.40;2.10;;;24.30;41.10;;;;;;4989646;28;20469;-60
2024/03/20 10:28:31;;;;;;;2.67;2.47;;;24.60;41.90;;;;;;4989084;28;20464;-60
2024/03/20 10:31:10;;;;;;;2.70;2.17;;;24.60;39.40;;;;;;4979575;28;20462;-62
2024/03/20 10:33:37;;;;;;;2.40;2.20;;;24.30;40.50;;;;;;4985566;28;20452;-58
2024/03/20 10:36:04;;;;;;;2.63;2.43;;;24.60;40.50;;;;;;4989190;28;20485;-60
2024/03/20 10:38:34;;;;;;;2.60;2.40;;;24.80;39.30;;;;;;4988309;28;20446;-60
2024/03/20 10:41:05;;;;;;;2.40;2.20;;;25.10;39.00;;;;;;4986166;28;20540;-62
2024/03/20 10:43:32;;;;;;;3.00;2.50;;;25.10;39.30;;;;;;4987876;28;20445;-59
2024/03/20 10:46:01;;;;;;;3.30;2.17;;;25.00;39.20;;;;;;4985493;28;20564;-60
2024/03/20 10:48:27;;;;;;;3.53;3.23;;;25.10;39.60;;;;;;4986999;28;20445;-61
2024/03/20 10:50:55;;;;;;;3.67;2.97;;;25.10;40.00;;;;;;4989197;28;20454;-60
2024/03/20 10:53:24;;;;;;;2.37;2.10;;;25.10;39.50;;;;;;4990079;28;20848;-62
2024/03/20 10:55:51;;;;;;;5.70;3.07;;;25.10;40.30;;;;;;5003717;28;20457;-60
2024/03/20 10:58:18;;;;;;;5.63;3.93;;;25.30;41.40;;;;;;4987136;28;20579;-59
2024/03/20 11:00:47;;;;;;;2.83;2.60;;;25.50;39.00;;;;;;4990466;28;20552;-61
2024/03/20 11:03:41;;;;;;;3.60;3.30;;;25.70;38.40;;;;;;4989004;28;20430;-59
2024/03/20 11:06:39;;;;;;;5.30;3.07;;;25.80;38.40;;;;;;4987566;28;20601;-60
2024/03/20 11:09:07;;;;;;;3.30;2.53;;;25.90;38.50;;;;;;4976824;28;21161;-63
2024/03/20 11:11:33;;;;;;;2.73;2.23;;;26.10;37.50;;;;;;4988737;28;21289;-61
2024/03/20 11:14:07;;;;;;;3.53;2.50;;;26.20;38.40;;;;;;4989018;28;20421;-62
2024/03/20 11:16:33;;;;;;;4.07;2.40;;;26.30;37.40;;;;;;4978688;28;20268;-61
2024/03/20 11:19:05;;;;;;;7.07;2.30;;;26.30;37.50;;;;;;4987257;28;20434;-61
2024/03/20 11:21:31;;;;;;;2.47;2.10;;;26.40;36.10;;;;;;4988210;28;20480;-60
2024/03/20 11:23:59;;;;;;;3.80;1.83;;;26.50;35.40;;;;;;4988990;28;20414;-56
2024/03/20 11:26:25;;;;;;;2.33;1.80;;;26.60;36.40;;;;;;4987124;28;20536;-61
2024/03/20 11:28:51;;;;;;;2.10;1.97;;;26.70;36.40;;;;;;4986255;28;20441;-60
2024/03/20 11:31:18;;;;;;;2.40;2.20;;;26.70;36.10;;;;;;4988515;28;20456;-62
2024/03/20 11:33:44;;;;;;;2.47;2.30;;;26.90;35.80;;;;;;5001388;28;20577;-61
2024/03/20 11:36:13;;;;;;;2.10;1.90;;;26.90;34.80;;;;;;4987107;28;20537;-58
2024/03/20 11:38:43;;;;;;;1.80;1.70;;;27.00;35.10;;;;;;4987934;28;20540;-59
2024/03/20 11:41:10;;;;;;;1.97;1.80;;;27.10;34.10;;;;;;4989275;28;20458;-59
2024/03/20 11:43:37;;;;;;;3.30;1.87;;;27.20;35.10;;;;;;4986358;28;20437;-62
2024/03/20 11:46:03;;;;;;;2.43;2.23;;;27.20;34.40;;;;;;4988073;28;20561;-60
2024/03/20 11:48:28;;;;;;;3.00;1.70;;;27.10;34.90;;;;;;4988601;28;20516;-60
2024/03/20 11:50:54;;;;;;;3.53;2.03;;;27.10;34.90;;;;;;4989011;28;20191;-58
2024/03/20 11:53:20;;;;;;;3.33;1.97;;;27.30;33.70;;;;;;4985138;28;20190;-60
2024/03/20 11:55:47;;;;;;;1.80;1.67;;;27.40;33.50;;;;;;4986231;28;20195;-59
2024/03/20 11:58:14;;;;;;;1.87;1.77;;;27.50;33.60;;;;;;4987839;28;20449;-60
2024/03/20 12:00:40;;;;;;;2.83;1.53;;;27.50;33.60;;;;;;4989283;28;20465;-62
2024/03/20 12:03:27;;;;;;;1.70;1.60;;;27.50;33.60;;;;;;4987191;28;20441;-60
2024/03/20 12:06:16;;;;;;;1.83;1.73;;;27.60;33.10;;;;;;4988519;28;20651;-60
2024/03/20 12:08:44;;;;;;;3.13;1.87;;;27.60;33.20;;;;;;4976716;28;20489;-60
2024/03/20 12:11:19;;;;;;;3.00;1.50;;;27.70;32.70;;;;;;4989478;28;20842;-60
2024/03/20 12:13:46;;;;;;;2.20;1.70;;;27.60;32.10;;;;;;4984137;28;20449;-61
2024/03/20 12:16:15;;;;;;;1.60;1.47;;;27.60;32.10;;;;;;4990563;28;20438;-60
2024/03/20 12:18:40;;;;;;;1.60;1.50;;;27.70;31.30;;;;;;4986914;28;20457;-58
2024/03/20 12:21:12;;;;;;;2.33;2.03;;;27.60;31.10;;;;;;4991789;28;20929;-62
2024/03/20 12:23:38;;;;;;;1.47;1.37;;;27.70;31.20;;;;;;4983300;28;20708;-61
2024/03/20 12:26:05;;;;;;;1.40;1.30;;;27.80;31.40;;;;;;4988732;28;20571;-61
2024/03/20 12:28:32;;;;;;;1.50;1.20;;;27.80;31.70;;;;;;4989381;28;20457;-59
2024/03/20 12:30:58;;;;;;;1.93;1.73;;;27.90;31.00;;;;;;4987504;28;20470;-56
2024/03/20 12:33:25;;;;;;;2.40;1.93;;;27.80;30.20;;;;;;4985492;28;21207;-60
2024/03/20 12:35:51;;;;;;;3.80;1.47;;;27.80;30.30;;;;;;4988014;28;20446;-59
2024/03/20 12:38:17;;;;;;;1.73;1.27;;;27.90;31.00;;;;;;4987673;28;20519;-60
2024/03/20 12:40:44;;;;;;;1.73;1.30;;;28.00;30.00;;;;;;4990739;28;20457;-58
2024/03/20 12:43:12;;;;;;;3.10;1.50;;;27.70;29.30;;;;;;4987975;28;20469;-58